createdAt,value
2019-05-19T00:01:19.460Z,18.30
2019-05-19T00:03:51.417Z,23.47
2019-05-19T00:06:23.378Z,19.90
2019-05-19T00:08:55.342Z,17.37
2019-05-19T00:11:27.338Z,17.30
2019-05-19T00:13:59.312Z,24.07
2019-05-19T00:16:31.594Z,20.27
2019-05-19T00:19:03.664Z,20.33
2019-05-19T00:21:35.629Z,20.13
2019-05-19T00:24:07.588Z,21.70
2019-05-19T00:26:40.126Z,21.53
2019-05-19T00:29:12.105Z,18.53
2019-05-19T00:31:44.134Z,21.63
2019-05-19T00:34:16.119Z,21.87
2019-05-19T00:36:48.090Z,20.33
2019-05-19T00:39:20.411Z,17.40
2019-05-19T00:41:52.396Z,17.40
2019-05-19T00:44:24.392Z,15.70
2019-05-19T00:46:56.369Z,19.80
2019-05-19T00:49:40.630Z,20.80
2019-05-19T00:52:02.124Z,20.17
2019-05-19T00:54:34.093Z,20.10
2019-05-19T00:57:06.247Z,20.00
2019-05-19T00:59:39.842Z,18.70
2019-05-19T01:02:11.818Z,16.57
2019-05-19T01:04:43.791Z,15.23
2019-05-19T01:07:15.840Z,13.20
2019-05-19T01:09:47.850Z,11.97
2019-05-19T01:12:20.175Z,10.77
2019-05-19T01:14:52.290Z,10.67
2019-05-19T01:17:24.216Z,13.67
2019-05-19T01:19:56.440Z,14.53
2019-05-19T01:22:28.814Z,18.80
2019-05-19T01:25:01.122Z,18.37
2019-05-19T01:27:33.123Z,16.07
2019-05-19T01:30:05.590Z,15.10
2019-05-19T01:32:37.624Z,14.67
2019-05-19T01:35:09.919Z,15.07
2019-05-19T01:37:41.894Z,13.20
2019-05-19T01:40:14.340Z,13.53
2019-05-19T01:42:46.374Z,25.93
2019-05-19T01:45:18.469Z,22.40
2019-05-19T01:47:50.430Z,26.63
2019-05-19T01:50:22.450Z,26.40
2019-05-19T01:52:54.422Z,25.33
2019-05-19T01:55:26.424Z,26.03
2019-05-19T01:57:58.393Z,28.13
2019-05-19T02:00:30.826Z,25.27
2019-05-19T02:03:02.802Z,24.83
2019-05-19T02:05:34.832Z,24.70
2019-05-19T02:08:06.822Z,24.90
2019-05-19T02:10:38.815Z,23.63
2019-05-19T02:13:10.826Z,25.07
2019-05-19T02:15:42.788Z,25.30
2019-05-19T02:18:14.800Z,25.80
2019-05-19T02:20:47.480Z,25.50
2019-05-19T02:23:19.459Z,23.60
2019-05-19T02:25:51.436Z,23.20
2019-05-19T02:28:23.524Z,25.80
2019-05-19T02:30:55.527Z,26.37
2019-05-19T02:33:27.505Z,21.37
2019-05-19T02:35:59.537Z,22.47
2019-05-19T02:38:31.564Z,21.93
2019-05-19T02:41:05.136Z,28.03
2019-05-19T02:43:38.453Z,35.50
2019-05-19T02:46:12.066Z,31.23
2019-05-19T02:48:45.219Z,32.47
2019-05-19T02:51:19.941Z,31.07
2019-05-19T02:53:52.466Z,36.67
2019-05-19T02:56:25.055Z,36.70
2019-05-19T02:58:58.645Z,35.67
2019-05-19T03:01:30.744Z,38.90
2019-05-19T03:04:02.685Z,37.40
2019-05-19T03:06:34.651Z,35.07
2019-05-19T03:09:07.037Z,33.23
2019-05-19T03:11:39.049Z,34.53
2019-05-19T03:14:11.244Z,35.53
2019-05-19T03:16:43.198Z,31.17
2019-05-19T03:19:15.179Z,29.50
2019-05-19T03:21:47.182Z,24.43
2019-05-19T03:24:19.146Z,21.57
2019-05-19T03:26:51.252Z,20.97
2019-05-19T03:29:29.323Z,28.83
2019-05-19T03:32:14.432Z,29.40
2019-05-19T03:34:46.419Z,30.97
2019-05-19T03:37:18.416Z,28.53
2019-05-19T03:39:50.664Z,27.83
2019-05-19T03:42:22.599Z,24.07
2019-05-19T03:44:54.604Z,23.90
2019-05-19T03:47:26.569Z,25.10
2019-05-19T03:49:58.557Z,25.77
2019-05-19T03:52:30.899Z,24.80
2019-05-19T03:55:02.868Z,25.20
2019-05-19T03:57:34.814Z,23.00
2019-05-19T04:00:08.193Z,20.50
2019-05-19T04:02:40.199Z,20.73
2019-05-19T04:05:12.268Z,18.60
2019-05-19T04:07:44.255Z,19.30
2019-05-19T04:10:16.540Z,19.77
2019-05-19T04:12:48.480Z,19.67
2019-05-19T04:15:20.712Z,19.07
2019-05-19T04:17:52.691Z,20.20
2019-05-19T04:20:24.658Z,18.30
2019-05-19T04:22:56.834Z,19.67
2019-05-19T04:25:28.839Z,18.03
2019-05-19T04:28:01.194Z,19.27
2019-05-19T04:30:33.169Z,19.40
2019-05-19T04:33:05.115Z,19.03
2019-05-19T04:35:37.091Z,18.90
2019-05-19T04:38:09.132Z,18.10
2019-05-19T04:40:41.181Z,17.87
2019-05-19T04:43:13.120Z,16.33
2019-05-19T04:45:45.113Z,17.23
2019-05-19T04:48:17.105Z,15.70
2019-05-19T04:50:49.178Z,16.00
2019-05-19T04:53:21.278Z,16.77
2019-05-19T04:55:53.293Z,14.27
2019-05-19T04:58:25.360Z,14.53
2019-05-19T05:00:57.320Z,15.13
2019-05-19T05:03:29.309Z,14.27
2019-05-19T05:06:01.284Z,13.73
2019-05-19T05:08:33.285Z,11.60
2019-05-19T05:11:05.232Z,11.00
2019-05-19T05:13:37.241Z,10.90
2019-05-19T05:16:09.296Z,9.83
2019-05-19T05:18:41.283Z,10.10
2019-05-19T05:21:13.393Z,9.98
2019-05-19T05:23:45.458Z,10.13
2019-05-19T05:26:17.626Z,10.13
2019-05-19T05:28:49.669Z,9.10
2019-05-19T05:31:21.672Z,9.15
2019-05-19T05:33:53.616Z,8.98
2019-05-19T05:36:27.780Z,10.00
2019-05-19T05:39:00.068Z,9.15
2019-05-19T05:41:32.058Z,8.00
2019-05-19T05:44:04.136Z,8.15
2019-05-19T05:46:36.142Z,8.38
2019-05-19T05:49:08.097Z,9.18
2019-05-19T05:51:40.371Z,9.33
2019-05-19T05:54:12.352Z,8.53
2019-05-19T05:56:44.386Z,6.92
2019-05-19T05:59:16.386Z,7.28
2019-05-19T06:01:48.415Z,7.35
2019-05-19T06:04:20.723Z,7.15
2019-05-19T06:06:52.749Z,8.10
2019-05-19T06:09:24.789Z,7.95
2019-05-19T06:11:56.837Z,6.78
2019-05-19T06:14:28.868Z,7.45
2019-05-19T06:17:00.817Z,7.25
2019-05-19T06:19:32.787Z,8.45
2019-05-19T06:22:04.830Z,8.43
2019-05-19T06:24:36.864Z,7.25
2019-05-19T06:27:08.987Z,8.28
2019-05-19T06:29:41.234Z,7.25
2019-05-19T06:32:28.908Z,8.20
2019-05-19T06:35:01.349Z,7.35
2019-05-19T06:37:33.381Z,7.20
2019-05-19T06:40:05.896Z,8.78
2019-05-19T06:42:37.888Z,7.95
2019-05-19T06:45:10.808Z,8.75
2019-05-19T06:47:42.826Z,9.13
2019-05-19T06:50:17.879Z,7.35
2019-05-19T06:52:50.137Z,8.45
2019-05-19T06:55:22.266Z,5.95
2019-05-19T06:57:54.362Z,6.00
2019-05-19T07:00:26.435Z,6.67
2019-05-19T07:02:58.382Z,5.50
2019-05-19T07:05:30.805Z,7.45
2019-05-19T07:08:02.866Z,6.92
2019-05-19T07:10:34.966Z,7.90
2019-05-19T07:13:07.010Z,6.53
2019-05-19T07:15:39.020Z,6.65
2019-05-19T07:18:11.022Z,5.90
2019-05-19T07:20:43.022Z,6.33
2019-05-19T07:23:27.225Z,5.20
2019-05-19T07:25:48.656Z,6.83
2019-05-19T07:28:21.034Z,6.12
2019-05-19T07:30:53.108Z,6.20
2019-05-19T07:33:25.585Z,6.33
2019-05-19T07:35:57.747Z,5.60
2019-05-19T07:38:30.904Z,5.78
2019-05-19T07:41:04.516Z,5.87
2019-05-19T07:43:35.935Z,5.25
2019-05-19T07:46:12.137Z,5.15
2019-05-19T07:48:45.184Z,5.78
2019-05-19T07:51:18.567Z,7.17
2019-05-19T07:53:50.936Z,6.70
2019-05-19T07:56:23.860Z,8.18
2019-05-19T07:58:56.784Z,9.68
2019-05-19T08:01:28.868Z,12.10
2019-05-19T08:04:01.119Z,16.00
2019-05-19T08:06:33.162Z,18.52
2019-05-19T08:09:07.087Z,22.00
2019-05-19T08:11:39.174Z,25.62
2019-05-19T08:14:11.184Z,30.00
2019-05-19T08:16:43.186Z,34.80
2019-05-19T08:19:15.228Z,40.08
2019-05-19T08:21:47.273Z,42.08
2019-05-19T08:24:19.306Z,44.30
2019-05-19T08:26:51.287Z,45.20
2019-05-19T08:29:23.213Z,43.48
2019-05-19T08:31:55.291Z,42.08
2019-05-19T08:34:27.273Z,45.35
2019-05-19T08:36:59.300Z,47.13
2019-05-19T08:39:31.312Z,54.00
2019-05-19T08:42:03.293Z,58.63
2019-05-19T08:44:35.265Z,58.20
2019-05-19T08:47:07.313Z,58.70
2019-05-19T08:49:39.285Z,63.13
2019-05-19T08:52:11.333Z,74.12
2019-05-19T08:54:43.440Z,84.60
2019-05-19T08:57:15.455Z,87.92
2019-05-19T08:59:47.570Z,90.67
2019-05-19T09:02:20.002Z,97.42
2019-05-19T09:04:51.978Z,101.10
2019-05-19T09:07:24.048Z,104.10
2019-05-19T09:09:56.026Z,112.25
2019-05-19T09:12:28.025Z,120.90
2019-05-19T09:14:59.989Z,130.72
2019-05-19T09:17:32.024Z,145.77
2019-05-19T09:20:03.974Z,150.55
2019-05-19T09:22:36.401Z,154.42
2019-05-19T09:25:08.506Z,168.10
2019-05-19T09:27:40.838Z,130.43
2019-05-19T09:30:12.902Z,65.83
2019-05-19T09:32:44.909Z,63.68
2019-05-19T09:35:17.012Z,84.47
2019-05-19T09:37:48.964Z,100.00
2019-05-19T09:40:21.274Z,133.47
2019-05-19T09:42:53.274Z,134.25
2019-05-19T09:45:25.353Z,156.75
2019-05-19T09:47:57.326Z,135.15
2019-05-19T09:50:29.282Z,110.95
2019-05-19T09:53:01.267Z,68.33
2019-05-19T09:55:33.198Z,12.45
2019-05-19T09:58:05.128Z,3.70
2019-05-19T10:00:37.115Z,4.80
2019-05-19T10:03:09.101Z,6.20
2019-05-19T10:05:41.114Z,7.40
2019-05-19T10:08:13.029Z,12.40
2019-05-19T10:11:25.735Z,23.25
2019-05-19T10:13:57.764Z,48.80
2019-05-19T10:16:30.206Z,66.53
2019-05-19T10:19:02.186Z,82.90
2019-05-19T10:21:34.154Z,98.40
2019-05-19T10:24:06.139Z,115.05
2019-05-19T10:26:38.135Z,140.68
2019-05-19T10:29:10.165Z,143.20
2019-05-19T10:43:31.880Z,1.45
2019-05-19T11:04:35.296Z,4.87
2019-05-19T11:07:07.299Z,3.87
2019-05-19T11:09:39.417Z,3.85
2019-05-19T11:12:11.665Z,4.10
2019-05-19T11:33:53.931Z,4.25
2019-05-19T11:36:25.936Z,4.33
2019-05-19T11:38:57.949Z,4.12
2019-05-19T11:41:30.252Z,4.37
2019-05-19T11:44:02.368Z,4.70
2019-05-19T11:46:34.496Z,4.85
2019-05-19T11:49:06.605Z,4.80
2019-05-19T11:51:38.610Z,4.75
2019-05-19T11:54:11.066Z,4.97
2019-05-19T11:56:43.090Z,5.00
2019-05-19T11:59:15.092Z,3.90
2019-05-19T12:01:47.390Z,5.10
2019-05-19T12:04:19.513Z,5.15
2019-05-19T12:06:51.636Z,5.08
2019-05-19T12:09:23.630Z,4.87
2019-05-19T12:11:55.686Z,4.90
2019-05-19T12:14:27.689Z,5.08
2019-05-19T12:17:00.281Z,4.85
2019-05-19T12:19:32.299Z,5.00
2019-05-19T12:22:04.249Z,5.37
2019-05-19T12:24:36.705Z,4.75
2019-05-19T12:27:08.737Z,6.70
2019-05-19T12:29:41.159Z,6.70
2019-05-19T12:32:13.166Z,6.50
2019-05-19T12:34:45.166Z,6.70
2019-05-19T12:37:17.266Z,6.97
2019-05-19T12:39:49.242Z,6.75
2019-05-19T12:42:21.684Z,6.10
2019-05-19T12:44:53.742Z,5.90
2019-05-19T12:47:25.787Z,6.30
2019-05-19T12:49:57.791Z,5.78
2019-05-19T12:52:30.031Z,5.85
2019-05-19T12:55:02.048Z,5.65
2019-05-19T12:57:34.100Z,5.78
2019-05-19T13:00:06.657Z,5.70
2019-05-19T13:02:38.624Z,5.90
2019-05-19T13:05:11.583Z,5.42
2019-05-19T13:07:43.609Z,6.13
2019-05-19T13:10:16.201Z,5.90
2019-05-19T13:12:48.335Z,5.53
2019-05-19T13:15:20.545Z,6.03
2019-05-19T13:17:52.797Z,6.33
2019-05-19T13:20:24.778Z,6.30
2019-05-19T13:22:56.819Z,5.57
2019-05-19T13:25:28.814Z,4.10
2019-05-19T13:28:01.100Z,3.53
2019-05-19T13:30:33.084Z,2.83
2019-05-19T13:33:05.055Z,2.67
2019-05-19T13:35:37.074Z,2.77
2019-05-19T13:38:09.077Z,3.40
2019-05-19T13:40:41.055Z,3.87
2019-05-19T13:43:13.074Z,4.17
2019-05-19T13:45:45.008Z,4.70
2019-05-19T13:48:17.015Z,5.43
2019-05-19T13:50:48.972Z,6.00
2019-05-19T13:53:21.245Z,6.53
2019-05-19T13:55:53.273Z,5.67
2019-05-19T13:58:25.285Z,4.53
2019-05-19T14:00:57.246Z,5.57
2019-05-19T14:03:29.340Z,4.40
2019-05-19T14:06:01.401Z,4.70
2019-05-19T14:08:33.351Z,4.87
2019-05-19T14:11:05.325Z,4.90
2019-05-19T14:13:37.275Z,6.70
2019-05-19T14:16:09.253Z,5.67
2019-05-19T14:18:41.252Z,5.37
2019-05-19T14:21:13.294Z,5.20
2019-05-19T14:23:45.320Z,5.63
2019-05-19T14:26:17.291Z,5.30
2019-05-19T14:28:49.329Z,5.10
2019-05-19T14:31:21.427Z,5.27
2019-05-19T14:33:53.621Z,5.10
2019-05-19T14:36:25.640Z,6.90
2019-05-19T14:39:06.047Z,6.33
2019-05-19T14:41:42.574Z,5.87
2019-05-19T14:44:14.704Z,8.07
2019-05-19T14:46:48.596Z,6.27
2019-05-19T14:49:20.714Z,4.80
2019-05-19T14:51:53.661Z,4.67
2019-05-19T14:54:26.405Z,4.80
2019-05-19T14:57:00.075Z,4.40
2019-05-19T14:59:32.161Z,4.40
2019-05-19T15:02:04.158Z,4.60
2019-05-19T15:04:36.177Z,4.77
2019-05-19T15:07:08.144Z,5.30
2019-05-19T15:09:40.521Z,4.93
2019-05-19T15:12:12.632Z,5.80
2019-05-19T15:14:47.411Z,6.00
2019-05-19T15:17:19.444Z,6.80
2019-05-19T15:19:51.487Z,6.77
2019-05-19T15:22:23.457Z,7.47
2019-05-19T15:24:55.458Z,6.83
2019-05-19T15:27:27.493Z,7.20
2019-05-19T15:30:11.852Z,8.40
2019-05-19T15:32:33.173Z,7.60
2019-05-19T15:35:05.561Z,7.80
2019-05-19T15:37:37.639Z,7.50
2019-05-19T15:40:10.830Z,8.77
2019-05-19T15:42:42.783Z,7.77
2019-05-19T15:45:14.999Z,8.10
2019-05-19T15:47:46.951Z,7.27
2019-05-19T15:50:20.907Z,8.33
2019-05-19T15:52:52.953Z,8.63
2019-05-19T15:55:24.929Z,8.53
2019-05-19T15:57:56.946Z,4.13
2019-05-19T16:00:28.974Z,4.13
2019-05-19T16:03:00.964Z,4.90
2019-05-19T16:05:32.945Z,5.03
2019-05-19T16:08:04.896Z,3.70
2019-05-19T16:10:36.880Z,4.77
2019-05-19T16:13:08.844Z,4.37
2019-05-19T16:15:41.236Z,4.13
2019-05-19T16:18:13.215Z,4.40
2019-05-19T16:20:45.189Z,4.10
2019-05-19T16:23:17.157Z,3.90
2019-05-19T16:25:49.165Z,3.70
2019-05-19T16:28:30.310Z,4.00
2019-05-19T16:30:55.129Z,4.33
2019-05-19T16:33:27.202Z,4.57
2019-05-19T16:35:59.204Z,4.33
2019-05-19T16:38:31.271Z,4.73
2019-05-19T16:41:03.211Z,4.97
2019-05-19T16:43:36.895Z,5.20
2019-05-19T16:46:08.968Z,5.13
2019-05-19T16:48:41.043Z,5.20
2019-05-19T16:51:13.053Z,6.30
2019-05-19T16:53:47.029Z,6.20
2019-05-19T16:56:19.140Z,7.33
2019-05-19T16:58:51.217Z,7.60
2019-05-19T17:01:23.202Z,7.80
2019-05-19T17:03:55.187Z,7.70
2019-05-19T17:06:27.171Z,7.40
2019-05-19T17:08:59.144Z,7.67
2019-05-19T17:11:31.225Z,8.00
2019-05-19T17:14:03.298Z,7.17
2019-05-19T17:16:35.359Z,7.70
2019-05-19T17:19:07.328Z,6.80
2019-05-19T17:21:40.027Z,7.40
2019-05-19T17:24:12.007Z,6.77
2019-05-19T17:26:43.989Z,7.00
2019-05-19T17:29:16.055Z,7.57
2019-05-19T17:31:48.045Z,7.93
2019-05-19T17:34:20.067Z,7.97
2019-05-19T17:36:52.066Z,8.53
2019-05-19T17:39:24.196Z,8.53
2019-05-19T17:41:56.192Z,8.90
2019-05-19T17:44:28.243Z,8.63
2019-05-19T17:47:00.609Z,8.90
2019-05-19T17:49:32.597Z,7.97
2019-05-19T17:52:05.075Z,8.17
2019-05-19T17:54:37.074Z,8.67
2019-05-19T17:57:09.179Z,8.10
2019-05-19T17:59:46.528Z,9.07
2019-05-19T18:02:18.664Z,9.27
2019-05-19T18:04:50.728Z,9.97
2019-05-19T18:07:22.776Z,9.73
2019-05-19T18:09:54.804Z,8.50
2019-05-19T18:12:26.991Z,8.80
2019-05-19T18:14:58.928Z,8.10
2019-05-19T18:17:31.383Z,8.57
2019-05-19T18:20:03.405Z,8.80
2019-05-19T18:22:35.496Z,8.80
2019-05-19T18:25:07.583Z,8.60
2019-05-19T18:27:39.971Z,8.70
2019-05-19T18:30:12.233Z,8.37
2019-05-19T18:32:44.333Z,8.70
2019-05-19T18:35:16.394Z,8.17
2019-05-19T18:37:48.422Z,7.50
2019-05-19T18:40:20.807Z,7.40
2019-05-19T18:42:52.841Z,7.33
2019-05-19T18:45:24.839Z,6.60
2019-05-19T18:47:56.942Z,6.67
2019-05-19T18:50:28.931Z,6.20
2019-05-19T18:53:00.929Z,6.50
2019-05-19T18:55:32.933Z,6.40
2019-05-19T18:58:04.912Z,6.43
2019-05-19T19:00:38.810Z,7.00
2019-05-19T19:03:11.147Z,6.90
2019-05-19T19:05:43.318Z,7.10
2019-05-19T19:08:15.364Z,8.50
2019-05-19T19:10:47.350Z,8.30
2019-05-19T19:13:20.071Z,7.53
2019-05-19T19:15:52.106Z,8.60
2019-05-19T19:18:24.237Z,8.17
2019-05-19T19:20:56.293Z,8.17
2019-05-19T19:23:28.290Z,8.30
2019-05-19T19:26:00.304Z,7.23
2019-05-19T19:28:32.323Z,8.07
2019-05-19T19:31:04.366Z,7.43
2019-05-19T19:33:36.355Z,7.30
2019-05-19T19:36:08.311Z,8.17
2019-05-19T19:38:40.651Z,8.53
2019-05-19T19:41:12.654Z,8.30
2019-05-19T19:43:44.671Z,8.17
2019-05-19T19:46:16.645Z,7.70
2019-05-19T19:48:48.709Z,6.50
2019-05-19T19:51:21.017Z,6.17
2019-05-19T19:53:53.078Z,5.87
2019-05-19T19:56:25.058Z,9.00
2019-05-19T19:58:57.139Z,9.67
2019-05-19T20:01:29.178Z,9.90
2019-05-19T20:04:01.174Z,9.80
2019-05-19T20:06:33.223Z,11.57
2019-05-19T20:09:05.901Z,11.67
2019-05-19T20:11:37.979Z,11.67
2019-05-19T20:14:09.987Z,11.77
2019-05-19T20:16:42.010Z,9.70
2019-05-19T20:19:13.997Z,10.60
2019-05-19T20:21:45.981Z,10.13
2019-05-19T20:24:17.931Z,10.80
2019-05-19T20:26:49.938Z,9.50
2019-05-19T20:29:21.919Z,10.63
2019-05-19T20:31:53.911Z,11.73
2019-05-19T20:34:25.907Z,11.10
2019-05-19T20:36:57.915Z,11.20
2019-05-19T20:39:30.329Z,9.77
2019-05-19T20:42:02.339Z,11.17
2019-05-19T20:44:34.388Z,12.00
2019-05-19T20:47:06.398Z,13.90
2019-05-19T20:49:38.451Z,14.40
2019-05-19T20:52:10.711Z,13.53
2019-05-19T20:54:42.713Z,11.47
2019-05-19T20:57:14.776Z,9.70
2019-05-19T20:59:46.783Z,9.77
2019-05-19T21:02:18.745Z,13.10
2019-05-19T21:04:50.733Z,14.03
2019-05-19T21:07:22.716Z,12.73
2019-05-19T21:09:54.747Z,12.90
2019-05-19T21:12:26.794Z,12.20
2019-05-19T21:14:58.759Z,12.30
2019-05-19T21:17:31.208Z,16.23
2019-05-19T21:20:05.725Z,14.17
2019-05-19T21:22:37.727Z,13.90
2019-05-19T21:25:10.507Z,16.70
2019-05-19T21:27:42.602Z,17.23
2019-05-19T21:30:14.601Z,16.30
2019-05-19T21:32:46.681Z,17.20
2019-05-19T21:35:18.649Z,16.13
2019-05-19T21:37:50.819Z,17.17
2019-05-19T21:40:22.791Z,16.20
2019-05-19T21:42:54.782Z,16.73
2019-05-19T21:45:26.911Z,18.07
2019-05-19T21:47:58.949Z,15.90
2019-05-19T21:50:31.494Z,13.33
2019-05-19T21:53:06.466Z,18.30
2019-05-19T21:55:37.469Z,17.83
2019-05-19T21:58:09.438Z,17.43
2019-05-19T22:00:42.801Z,18.27
2019-05-19T22:03:14.819Z,16.77
2019-05-19T22:05:53.276Z,17.47
2019-05-19T22:08:21.587Z,14.60
2019-05-19T22:10:53.939Z,12.93
2019-05-19T22:13:26.420Z,13.53
2019-05-19T22:16:11.763Z,15.63
2019-05-19T22:18:32.207Z,15.30
2019-05-19T22:21:04.181Z,15.20
2019-05-19T22:23:36.195Z,14.13
2019-05-19T22:26:08.218Z,15.20
2019-05-19T22:28:40.457Z,14.47
2019-05-19T22:31:12.474Z,15.30
2019-05-19T22:33:44.547Z,19.00
2019-05-19T22:36:16.623Z,19.17
2019-05-19T22:38:48.623Z,19.87
2019-05-19T22:41:21.002Z,18.27
2019-05-19T22:43:53.005Z,20.63
2019-05-19T22:46:25.191Z,20.30
2019-05-19T22:48:57.194Z,18.20
2019-05-19T22:51:29.184Z,19.87
2019-05-19T22:54:01.310Z,19.27
2019-05-19T22:56:33.304Z,18.17
2019-05-19T22:59:18.922Z,19.83
2019-05-19T23:01:51.023Z,20.80
2019-05-19T23:04:12.683Z,22.57
2019-05-19T23:06:44.659Z,25.93
2019-05-19T23:09:16.663Z,26.70
2019-05-19T23:11:48.654Z,24.40
2019-05-19T23:14:20.947Z,25.37
2019-05-19T23:16:52.899Z,24.53
2019-05-19T23:19:24.897Z,24.70
2019-05-19T23:21:56.836Z,24.70
2019-05-19T23:24:28.833Z,24.77
2019-05-19T23:27:01.167Z,22.93
2019-05-19T23:29:33.150Z,23.10
2019-05-19T23:32:07.373Z,22.60
2019-05-19T23:34:39.141Z,24.50
2019-05-19T23:37:11.209Z,24.10
2019-05-19T23:39:43.303Z,23.53
2019-05-19T23:42:15.305Z,23.90
2019-05-19T23:44:47.293Z,25.70
2019-05-19T23:47:19.284Z,25.50
2019-05-19T23:49:51.290Z,25.37
2019-05-19T23:52:23.289Z,26.57
2019-05-19T23:54:55.247Z,25.60
2019-05-19T23:57:27.224Z,24.37
2019-05-19T23:59:59.178Z,25.57
